Terminal Aerodrome Forecast
Issued by NWS Indianapolis, IN

Home | Current Version | Previous Version | Text Only | Print | Product List | Glossary On
Versions: 1 2 3 4 5 6 7 8 9 10 11 12 13 14 15 16 17 18 19 20 21 22 23 24 25
720
FTUS43 KIND 010520
TAFIND
TAF
KIND 010520Z 0106/0212 VRB03KT P6SM BKN200
     FM011200 13005KT P6SM VCTS SCT060CB BKN200
     FM011600 18005KT P6SM -SHRA BKN080 PROB30 0116/0122 4SM TSRA
      OVC060CB
     FM012200 25005KT P6SM BKN060 PROB30 0122/0124 4SM -TSRA
      OVC040CB
     FM020100 26005KT P6SM SCT060 BKN200
     FM020600 29003KT 5SM BR SCT060 BKN200=

USA.gov is the U.S. government's official web portal to all federal, state and local government web resources and services.